Announcements:Want to see something added? Can you write a mobile app? Email Mr. Reynolds

Nearby METAR Reports

 

KMIC - Crystal, Minnesota, USA
Distance from station: S 7mi, 16km
Updated: Fri, 07/23/2021 10:53pm CDT
Clear
Clear
 Wind from S
Wind: S 9 mph , 15 km/h
Temperature: 84°F , 29°C
Heat Index: 90°F , 32°C
Dew Point: 73°F , 23°C
Humidity: 70%
Barometer: 29.81 inHg , 1009.5 hPa
Clouds: Clear
Visibility: 10 miles , 16 km
2021/07/24 03:53 KMIC 240353Z AUTO 19008KT 10SM CLR 29/23 A2981 RMK AO2 SLP088 T02940228
KANE - Anoka-Blaine, Minnesota, USA
Distance from station: SW 16mi, 27km
Updated: Fri, 07/23/2021 11:15pm CDT
Clear
Clear
 Wind from SSW
Wind: SSW 10 mph , 17 km/h
Temperature: 86°F , 30°C
Heat Index: 93°F , 34°C
Dew Point: 73°F , 23°C
Humidity: 66%
Barometer: 29.82 inHg , 1009.8 hPa
Clouds: Clear
Visibility: 10 miles , 16 km
2021/07/24 04:15 KANE 240415Z AUTO 20009KT 10SM CLR 30/23 A2982 RMK AO2
KFCM - Flying Cloud-Eden Prairie, Minnesota, USA
Distance from station: NE 17mi, 28km
Updated: Fri, 07/23/2021 10:53pm CDT
Clear
Clear
 Wind from SSW
Wind: SSW 9 mph , 15 km/h
Temperature: 82°F , 28°C
Heat Index: 87°F , 31°C
Dew Point: 73°F , 23°C
Humidity: 74%
Barometer: 29.83 inHg , 1010.2 hPa
Clouds: Clear
Visibility: 10 miles , 16 km
2021/07/24 03:53 KFCM 240353Z AUTO 21008KT 10SM CLR 28/23 A2983 RMK AO2 SLP093 T02830228
 
KMSP - Minneapolis-St. Paul, Minnesota, USA
Distance from station: NW 16mi, 27km
Updated: Fri, 07/23/2021 10:53pm CDT
Partly cloudy
Partly cloudy
 Wind from SW
Wind: SW 9 mph , 15 km/h
Temperature: 84°F , 29°C
Heat Index: 90°F , 32°C
Dew Point: 73°F , 23°C
Humidity: 70%
Barometer: 29.83 inHg , 1010.2 hPa
Clouds: Partly cloudy
Visibility: 10 miles , 16 km
Cloud details: Few Clouds 10000 ft
Partly cloudy 22000 ft
2021/07/24 03:53 KMSP 240353Z 22008KT 10SM FEW100 SCT220 29/23 A2983 RMK AO2 SLP094 T02940228
KRST - Rochester, Minnesota, USA
Distance from station: NW 99mi, 159km
Updated: Fri, 07/23/2021 10:54pm CDT
Clear
Clear
 Wind from SSW
Wind: SSW 9 mph , 15 km/h
Temperature: 79°F , 26°C
Dew Point: 72°F , 22°C
Humidity: 79%
Barometer: 29.91 inHg , 1012.9 hPa
Clouds: Clear
Visibility: 10 miles , 16 km
2021/07/24 03:54 KRST 240354Z 20008KT 10SM CLR 26/22 A2991 RMK AO2 SLP119 T02560217
KSGS - Fleming/St Paul, Minnesota, USA
Distance from station: W 23mi, 37km
Updated: Fri, 07/23/2021 11:15pm CDT
Clear
Clear
 Wind from SSW
Wind: SSW 8 mph , 13 km/h
Temperature: 84°F , 29°C
Heat Index: 89°F , 32°C
Dew Point: 72°F , 22°C
Humidity: 66%
Barometer: 29.83 inHg , 1010.2 hPa
Clouds: Clear
Visibility: 10 miles , 16 km
2021/07/24 04:15 KSGS 240415Z AUTO 21007KT 10SM CLR 29/22 A2983 RMK AO2 T02850220
 
KDLH - Duluth, Minnesota, USA
Distance from station: SSW 164mi, 265km
Updated: Fri, 07/23/2021 11:19pm CDT
Few Clouds
Few Clouds
 Wind from calm
Wind: Calm
Temperature: 70°F , 21°C
Dew Point: 66°F , 19°C
Humidity: 88%
Barometer: 29.82 inHg , 1009.8 hPa
Clouds: Few Clouds
Visibility: 10 miles , 16 km
Cloud details: Few Clouds 3000 ft
Few Clouds 11000 ft
2021/07/24 04:19 KDLH 240419Z 00000KT 10SM FEW030 FEW110 21/19 A2982 RMK AO2 LTG DSNT SE AND S TSE13 T02060194
KBRD - Brainard, Minnesota, USA
Distance from station: SSE 127mi, 25km
Updated: Fri, 07/23/2021 10:53pm CDT
Few Clouds
Few Clouds
 Wind from SE
Wind: SE 9 mph , 15 km/h
Temperature: 81°F , 27°C
Heat Index: 83°F , 28°C
Dew Point: 66°F , 19°C
Humidity: 62%
Barometer: 29.82 inHg , 1009.8 hPa
Clouds: Few Clouds
Visibility: 8 miles , 13 km
Cloud details: Few Clouds 4200 ft
2021/07/24 03:53 KBRD 240353Z AUTO 14008KT 8SM FEW042 27/19 A2982 RMK AO2 SLP089 T02720189